sensor_id;sensor_type;location;lat;lon;timestamp;temperature;humidity
75615;DHT22;64199;48.578;-4.520;2023-04-03T00:01:37;20.80;57.00
75615;DHT22;64199;48.578;-4.520;2023-04-03T00:04:04;20.80;57.20
75615;DHT22;64199;48.578;-4.520;2023-04-03T00:06:31;20.80;57.10
75615;DHT22;64199;48.578;-4.520;2023-04-03T00:08:57;20.80;57.20
75615;DHT22;64199;48.578;-4.520;2023-04-03T00:11:23;20.90;57.30
75615;DHT22;64199;48.578;-4.520;2023-04-03T00:13:49;20.90;57.30
75615;DHT22;64199;48.578;-4.520;2023-04-03T00:16:15;21.00;57.40
75615;DHT22;64199;48.578;-4.520;2023-04-03T00:18:41;21.00;57.50
75615;DHT22;64199;48.578;-4.520;2023-04-03T00:21:08;21.00;57.50
75615;DHT22;64199;48.578;-4.520;2023-04-03T00:23:35;21.00;57.60
75615;DHT22;64199;48.578;-4.520;2023-04-03T00:26:00;21.10;57.60
75615;DHT22;64199;48.578;-4.520;2023-04-03T00:28:26;21.10;57.60
75615;DHT22;64199;48.578;-4.520;2023-04-03T00:30:52;21.10;57.60
75615;DHT22;64199;48.578;-4.520;2023-04-03T00:33:18;21.20;57.70
75615;DHT22;64199;48.578;-4.520;2023-04-03T00:35:47;21.20;57.70
75615;DHT22;64199;48.578;-4.520;2023-04-03T00:38:14;21.30;57.80
75615;DHT22;64199;48.578;-4.520;2023-04-03T00:40:43;21.30;57.80
75615;DHT22;64199;48.578;-4.520;2023-04-03T00:43:20;21.30;57.80
75615;DHT22;64199;48.578;-4.520;2023-04-03T00:45:51;21.40;57.90
75615;DHT22;64199;48.578;-4.520;2023-04-03T00:50:51;21.40;57.90
75615;DHT22;64199;48.578;-4.520;2023-04-03T00:53:35;21.50;57.90
75615;DHT22;64199;48.578;-4.520;2023-04-03T00:56:06;21.50;57.90
75615;DHT22;64199;48.578;-4.520;2023-04-03T00:58:39;21.50;57.90
75615;DHT22;64199;48.578;-4.520;2023-04-03T01:01:08;21.60;57.90
75615;DHT22;64199;48.578;-4.520;2023-04-03T01:03:35;21.60;57.80
75615;DHT22;64199;48.578;-4.520;2023-04-03T01:06:02;21.60;57.80
75615;DHT22;64199;48.578;-4.520;2023-04-03T01:08:28;21.70;57.80
75615;DHT22;64199;48.578;-4.520;2023-04-03T01:10:54;21.70;57.80
75615;DHT22;64199;48.578;-4.520;2023-04-03T01:13:26;21.70;57.80
75615;DHT22;64199;48.578;-4.520;2023-04-03T01:15:53;21.70;57.90
75615;DHT22;64199;48.578;-4.520;2023-04-03T01:18:19;21.80;57.90
75615;DHT22;64199;48.578;-4.520;2023-04-03T01:26:24;21.90;57.90
75615;DHT22;64199;48.578;-4.520;2023-04-03T01:28:53;21.90;58.00
75615;DHT22;64199;48.578;-4.520;2023-04-03T01:34:01;22.00;58.10
75615;DHT22;64199;48.578;-4.520;2023-04-03T01:36:29;22.00;58.10
75615;DHT22;64199;48.578;-4.520;2023-04-03T01:38:56;22.00;58.10
75615;DHT22;64199;48.578;-4.520;2023-04-03T01:41:25;22.10;58.20
75615;DHT22;64199;48.578;-4.520;2023-04-03T01:43:51;22.10;58.30
75615;DHT22;64199;48.578;-4.520;2023-04-03T01:46:18;22.20;58.40
75615;DHT22;64199;48.578;-4.520;2023-04-03T01:48:45;22.20;58.40
75615;DHT22;64199;48.578;-4.520;2023-04-03T01:51:11;22.20;58.30
75615;DHT22;64199;48.578;-4.520;2023-04-03T01:53:37;22.30;58.40
75615;DHT22;64199;48.578;-4.520;2023-04-03T01:56:03;22.30;58.60
75615;DHT22;64199;48.578;-4.520;2023-04-03T01:58:29;22.30;58.40
75615;DHT22;64199;48.578;-4.520;2023-04-03T02:00:55;22.40;58.40
75615;DHT22;64199;48.578;-4.520;2023-04-03T02:03:21;22.40;58.30
75615;DHT22;64199;48.578;-4.520;2023-04-03T02:05:47;22.40;58.20
75615;DHT22;64199;48.578;-4.520;2023-04-03T02:08:13;22.40;58.10
75615;DHT22;64199;48.578;-4.520;2023-04-03T02:10:39;22.50;58.00
75615;DHT22;64199;48.578;-4.520;2023-04-03T02:13:05;22.50;57.90
75615;DHT22;64199;48.578;-4.520;2023-04-03T02:15:31;22.50;57.80
75615;DHT22;64199;48.578;-4.520;2023-04-03T02:17:57;22.50;57.80
75615;DHT22;64199;48.578;-4.520;2023-04-03T02:20:22;22.50;57.70
75615;DHT22;64199;48.578;-4.520;2023-04-03T02:22:48;22.50;57.70
75615;DHT22;64199;48.578;-4.520;2023-04-03T02:25:14;22.50;57.70
75615;DHT22;64199;48.578;-4.520;2023-04-03T02:27:40;22.60;57.70
75615;DHT22;64199;48.578;-4.520;2023-04-03T02:30:06;22.60;57.60
75615;DHT22;64199;48.578;-4.520;2023-04-03T02:32:32;22.60;57.50
75615;DHT22;64199;48.578;-4.520;2023-04-03T02:34:58;22.60;57.40
75615;DHT22;64199;48.578;-4.520;2023-04-03T02:37:24;22.60;57.30
75615;DHT22;64199;48.578;-4.520;2023-04-03T02:39:50;22.60;57.20
75615;DHT22;64199;48.578;-4.520;2023-04-03T02:42:17;22.50;57.20
75615;DHT22;64199;48.578;-4.520;2023-04-03T02:44:43;22.50;57.10
75615;DHT22;64199;48.578;-4.520;2023-04-03T02:47:10;22.50;57.10
75615;DHT22;64199;48.578;-4.520;2023-04-03T02:49:35;22.50;57.00
75615;DHT22;64199;48.578;-4.520;2023-04-03T02:52:01;22.40;56.90
75615;DHT22;64199;48.578;-4.520;2023-04-03T02:54:27;22.40;56.80
75615;DHT22;64199;48.578;-4.520;2023-04-03T02:56:56;22.40;56.80
75615;DHT22;64199;48.578;-4.520;2023-04-03T02:59:22;22.40;56.80
75615;DHT22;64199;48.578;-4.520;2023-04-03T03:01:48;22.30;56.70
75615;DHT22;64199;48.578;-4.520;2023-04-03T03:04:13;22.30;57.00
75615;DHT22;64199;48.578;-4.520;2023-04-03T03:06:40;22.30;57.10
75615;DHT22;64199;48.578;-4.520;2023-04-03T03:09:06;22.30;57.20
75615;DHT22;64199;48.578;-4.520;2023-04-03T03:11:32;22.30;57.30
75615;DHT22;64199;48.578;-4.520;2023-04-03T03:13:58;22.30;57.30
75615;DHT22;64199;48.578;-4.520;2023-04-03T03:16:24;22.20;57.30
75615;DHT22;64199;48.578;-4.520;2023-04-03T03:18:50;22.20;57.20
75615;DHT22;64199;48.578;-4.520;2023-04-03T03:21:16;22.20;57.20
75615;DHT22;64199;48.578;-4.520;2023-04-03T03:23:41;22.20;57.20
75615;DHT22;64199;48.578;-4.520;2023-04-03T03:26:09;22.10;57.20
75615;DHT22;64199;48.578;-4.520;2023-04-03T03:28:37;22.10;57.30
75615;DHT22;64199;48.578;-4.520;2023-04-03T03:31:04;22.00;57.30
75615;DHT22;64199;48.578;-4.520;2023-04-03T03:33:30;22.00;57.40
75615;DHT22;64199;48.578;-4.520;2023-04-03T03:35:57;22.00;57.70
75615;DHT22;64199;48.578;-4.520;2023-04-03T03:38:23;22.00;57.60
75615;DHT22;64199;48.578;-4.520;2023-04-03T03:40:49;21.90;57.50
75615;DHT22;64199;48.578;-4.520;2023-04-03T03:43:16;21.90;57.50
75615;DHT22;64199;48.578;-4.520;2023-04-03T03:45:42;21.90;57.50
75615;DHT22;64199;48.578;-4.520;2023-04-03T03:48:08;21.80;57.60
75615;DHT22;64199;48.578;-4.520;2023-04-03T03:50:35;21.80;57.70
75615;DHT22;64199;48.578;-4.520;2023-04-03T03:53:01;21.80;57.70
75615;DHT22;64199;48.578;-4.520;2023-04-03T03:55:27;21.80;57.70
75615;DHT22;64199;48.578;-4.520;2023-04-03T03:57:53;21.70;57.70
75615;DHT22;64199;48.578;-4.520;2023-04-03T04:00:19;21.70;57.80
75615;DHT22;64199;48.578;-4.520;2023-04-03T04:02:45;21.70;57.70
75615;DHT22;64199;48.578;-4.520;2023-04-03T04:05:12;21.70;57.80
75615;DHT22;64199;48.578;-4.520;2023-04-03T04:07:37;21.60;57.70
75615;DHT22;64199;48.578;-4.520;2023-04-03T04:10:04;21.60;57.70
75615;DHT22;64199;48.578;-4.520;2023-04-03T04:12:30;21.60;57.80
75615;DHT22;64199;48.578;-4.520;2023-04-03T04:14:56;21.60;57.80
75615;DHT22;64199;48.578;-4.520;2023-04-03T04:17:21;21.60;57.80
75615;DHT22;64199;48.578;-4.520;2023-04-03T04:19:47;21.50;57.70
75615;DHT22;64199;48.578;-4.520;2023-04-03T04:22:13;21.50;57.70
75615;DHT22;64199;48.578;-4.520;2023-04-03T04:24:39;21.50;57.70
75615;DHT22;64199;48.578;-4.520;2023-04-03T04:27:05;21.50;57.80
75615;DHT22;64199;48.578;-4.520;2023-04-03T04:29:31;21.40;57.70
75615;DHT22;64199;48.578;-4.520;2023-04-03T04:32:02;21.40;57.70
75615;DHT22;64199;48.578;-4.520;2023-04-03T04:34:28;21.40;57.70
75615;DHT22;64199;48.578;-4.520;2023-04-03T04:36:54;21.40;57.70
75615;DHT22;64199;48.578;-4.520;2023-04-03T04:39:20;21.40;57.80
75615;DHT22;64199;48.578;-4.520;2023-04-03T04:41:46;21.30;57.80
75615;DHT22;64199;48.578;-4.520;2023-04-03T04:44:11;21.30;57.80
75615;DHT22;64199;48.578;-4.520;2023-04-03T04:46:37;21.30;57.80
75615;DHT22;64199;48.578;-4.520;2023-04-03T04:49:03;21.30;57.80
75615;DHT22;64199;48.578;-4.520;2023-04-03T04:51:29;21.30;57.80
75615;DHT22;64199;48.578;-4.520;2023-04-03T04:53:55;21.20;57.80
75615;DHT22;64199;48.578;-4.520;2023-04-03T04:56:21;21.20;57.80
75615;DHT22;64199;48.578;-4.520;2023-04-03T04:58:47;21.20;57.80
75615;DHT22;64199;48.578;-4.520;2023-04-03T05:01:13;21.10;57.80
75615;DHT22;64199;48.578;-4.520;2023-04-03T05:03:38;21.10;57.80
75615;DHT22;64199;48.578;-4.520;2023-04-03T05:06:05;21.10;57.70
75615;DHT22;64199;48.578;-4.520;2023-04-03T05:08:31;21.10;57.70
75615;DHT22;64199;48.578;-4.520;2023-04-03T05:10:57;21.10;57.60
75615;DHT22;64199;48.578;-4.520;2023-04-03T05:13:23;21.00;57.50
75615;DHT22;64199;48.578;-4.520;2023-04-03T05:15:49;21.00;57.50
75615;DHT22;64199;48.578;-4.520;2023-04-03T05:18:15;21.00;57.50
75615;DHT22;64199;48.578;-4.520;2023-04-03T05:20:41;21.00;57.50
75615;DHT22;64199;48.578;-4.520;2023-04-03T05:23:06;21.00;57.50
75615;DHT22;64199;48.578;-4.520;2023-04-03T05:25:32;21.00;57.50
75615;DHT22;64199;48.578;-4.520;2023-04-03T05:27:58;20.90;57.50
75615;DHT22;64199;48.578;-4.520;2023-04-03T05:30:24;20.90;57.50
75615;DHT22;64199;48.578;-4.520;2023-04-03T05:32:50;20.90;57.60
75615;DHT22;64199;48.578;-4.520;2023-04-03T05:35:16;20.90;57.60
75615;DHT22;64199;48.578;-4.520;2023-04-03T05:37:41;20.80;57.50
75615;DHT22;64199;48.578;-4.520;2023-04-03T05:40:08;20.80;57.50
75615;DHT22;64199;48.578;-4.520;2023-04-03T05:42:34;20.80;57.50
75615;DHT22;64199;48.578;-4.520;2023-04-03T05:45:00;20.80;57.50
75615;DHT22;64199;48.578;-4.520;2023-04-03T05:47:26;20.80;58.10
75615;DHT22;64199;48.578;-4.520;2023-04-03T05:49:52;20.70;57.50
75615;DHT22;64199;48.578;-4.520;2023-04-03T05:52:27;20.70;57.50
75615;DHT22;64199;48.578;-4.520;2023-04-03T05:54:53;20.70;57.60
75615;DHT22;64199;48.578;-4.520;2023-04-03T05:57:19;20.70;57.50
75615;DHT22;64199;48.578;-4.520;2023-04-03T05:59:46;20.60;57.50
75615;DHT22;64199;48.578;-4.520;2023-04-03T06:02:23;20.70;57.60
75615;DHT22;64199;48.578;-4.520;2023-04-03T06:04:49;20.60;57.60
75615;DHT22;64199;48.578;-4.520;2023-04-03T06:07:18;20.60;57.60
75615;DHT22;64199;48.578;-4.520;2023-04-03T06:09:47;20.60;57.60
75615;DHT22;64199;48.578;-4.520;2023-04-03T06:12:13;20.50;57.50
75615;DHT22;64199;48.578;-4.520;2023-04-03T06:14:40;20.50;57.60
75615;DHT22;64199;48.578;-4.520;2023-04-03T06:17:06;20.50;57.60
75615;DHT22;64199;48.578;-4.520;2023-04-03T06:19:34;20.50;57.60
75615;DHT22;64199;48.578;-4.520;2023-04-03T06:22:00;20.50;57.60
75615;DHT22;64199;48.578;-4.520;2023-04-03T06:24:26;20.50;57.60
75615;DHT22;64199;48.578;-4.520;2023-04-03T06:26:52;20.40;57.60
75615;DHT22;64199;48.578;-4.520;2023-04-03T06:29:19;20.50;57.70
75615;DHT22;64199;48.578;-4.520;2023-04-03T06:31:46;20.40;57.70
75615;DHT22;64199;48.578;-4.520;2023-04-03T06:34:12;20.40;57.70
75615;DHT22;64199;48.578;-4.520;2023-04-03T06:36:39;20.40;57.70
75615;DHT22;64199;48.578;-4.520;2023-04-03T06:39:05;20.40;57.80
75615;DHT22;64199;48.578;-4.520;2023-04-03T06:41:31;20.40;57.80
75615;DHT22;64199;48.578;-4.520;2023-04-03T06:43:57;20.40;57.90
75615;DHT22;64199;48.578;-4.520;2023-04-03T06:46:26;20.30;57.90
75615;DHT22;64199;48.578;-4.520;2023-04-03T06:48:52;20.30;57.90
75615;DHT22;64199;48.578;-4.520;2023-04-03T06:51:24;20.30;57.90
75615;DHT22;64199;48.578;-4.520;2023-04-03T06:53:52;20.30;58.00
75615;DHT22;64199;48.578;-4.520;2023-04-03T06:56:18;20.30;58.00
75615;DHT22;64199;48.578;-4.520;2023-04-03T06:58:45;20.40;58.10
75615;DHT22;64199;48.578;-4.520;2023-04-03T07:01:13;20.40;58.20
75615;DHT22;64199;48.578;-4.520;2023-04-03T07:03:40;20.40;58.30
75615;DHT22;64199;48.578;-4.520;2023-04-03T07:06:07;20.40;58.40
75615;DHT22;64199;48.578;-4.520;2023-04-03T07:08:34;20.50;58.40
75615;DHT22;64199;48.578;-4.520;2023-04-03T07:11:00;20.50;58.50
75615;DHT22;64199;48.578;-4.520;2023-04-03T07:13:26;20.50;58.50
75615;DHT22;64199;48.578;-4.520;2023-04-03T07:15:52;20.60;58.60
75615;DHT22;64199;48.578;-4.520;2023-04-03T07:18:19;20.60;58.70
75615;DHT22;64199;48.578;-4.520;2023-04-03T07:20:44;20.60;58.70
75615;DHT22;64199;48.578;-4.520;2023-04-03T07:23:11;20.60;58.70
75615;DHT22;64199;48.578;-4.520;2023-04-03T07:25:41;20.70;58.80
75615;DHT22;64199;48.578;-4.520;2023-04-03T07:28:07;20.70;58.90
75615;DHT22;64199;48.578;-4.520;2023-04-03T07:30:34;20.70;58.90
75615;DHT22;64199;48.578;-4.520;2023-04-03T07:33:00;20.70;58.90
75615;DHT22;64199;48.578;-4.520;2023-04-03T07:35:26;20.80;59.00
75615;DHT22;64199;48.578;-4.520;2023-04-03T07:37:52;20.80;59.00
75615;DHT22;64199;48.578;-4.520;2023-04-03T07:40:18;20.90;59.00
75615;DHT22;64199;48.578;-4.520;2023-04-03T07:42:44;20.90;59.00
75615;DHT22;64199;48.578;-4.520;2023-04-03T07:45:10;20.90;59.00
75615;DHT22;64199;48.578;-4.520;2023-04-03T07:47:37;21.00;59.10
75615;DHT22;64199;48.578;-4.520;2023-04-03T07:50:02;21.00;59.10
75615;DHT22;64199;48.578;-4.520;2023-04-03T07:52:28;21.10;59.10
75615;DHT22;64199;48.578;-4.520;2023-04-03T07:54:54;21.10;59.00
75615;DHT22;64199;48.578;-4.520;2023-04-03T07:57:20;21.10;59.00
75615;DHT22;64199;48.578;-4.520;2023-04-03T07:59:46;21.10;59.10
75615;DHT22;64199;48.578;-4.520;2023-04-03T08:02:12;21.20;59.10
75615;DHT22;64199;48.578;-4.520;2023-04-03T08:04:38;21.20;59.20
75615;DHT22;64199;48.578;-4.520;2023-04-03T08:07:04;21.20;59.20
75615;DHT22;64199;48.578;-4.520;2023-04-03T08:09:30;21.30;59.10
75615;DHT22;64199;48.578;-4.520;2023-04-03T08:11:57;21.30;59.10
75615;DHT22;64199;48.578;-4.520;2023-04-03T08:14:23;21.30;59.10
75615;DHT22;64199;48.578;-4.520;2023-04-03T08:16:49;21.40;59.10
75615;DHT22;64199;48.578;-4.520;2023-04-03T08:19:16;21.40;59.00
75615;DHT22;64199;48.578;-4.520;2023-04-03T08:21:44;21.40;58.90
75615;DHT22;64199;48.578;-4.520;2023-04-03T08:24:10;21.50;58.90
75615;DHT22;64199;48.578;-4.520;2023-04-03T08:26:37;21.50;58.90
75615;DHT22;64199;48.578;-4.520;2023-04-03T08:29:03;21.50;58.80
75615;DHT22;64199;48.578;-4.520;2023-04-03T08:31:29;21.60;58.80
75615;DHT22;64199;48.578;-4.520;2023-04-03T08:33:56;21.60;58.80
75615;DHT22;64199;48.578;-4.520;2023-04-03T08:36:28;21.60;58.80
75615;DHT22;64199;48.578;-4.520;2023-04-03T08:38:55;21.60;58.70
75615;DHT22;64199;48.578;-4.520;2023-04-03T08:41:34;21.60;58.70
75615;DHT22;64199;48.578;-4.520;2023-04-03T08:49:49;22.00;58.60
75615;DHT22;64199;48.578;-4.520;2023-04-03T08:52:27;22.20;58.20
75615;DHT22;64199;48.578;-4.520;2023-04-03T08:54:55;22.40;58.10
75615;DHT22;64199;48.578;-4.520;2023-04-03T08:57:43;22.60;58.00
75615;DHT22;64199;48.578;-4.520;2023-04-03T09:00:21;22.80;57.80
75615;DHT22;64199;48.578;-4.520;2023-04-03T09:05:18;23.00;57.30
75615;DHT22;64199;48.578;-4.520;2023-04-03T09:07:51;23.20;56.90
75615;DHT22;64199;48.578;-4.520;2023-04-03T09:10:25;23.20;56.40
75615;DHT22;64199;48.578;-4.520;2023-04-03T09:15:53;23.50;56.30
75615;DHT22;64199;48.578;-4.520;2023-04-03T09:18:42;23.50;56.10
75615;DHT22;64199;48.578;-4.520;2023-04-03T09:21:21;23.50;55.70
75615;DHT22;64199;48.578;-4.520;2023-04-03T09:23:58;23.60;55.70
75615;DHT22;64199;48.578;-4.520;2023-04-03T09:28:54;23.50;55.60
75615;DHT22;64199;48.578;-4.520;2023-04-03T09:31:25;23.50;55.40
75615;DHT22;64199;48.578;-4.520;2023-04-03T09:33:58;23.50;55.30
75615;DHT22;64199;48.578;-4.520;2023-04-03T09:36:46;23.50;55.20
75615;DHT22;64199;48.578;-4.520;2023-04-03T09:39:22;23.50;54.80
75615;DHT22;64199;48.578;-4.520;2023-04-03T09:42:01;23.50;54.90
75615;DHT22;64199;48.578;-4.520;2023-04-03T09:44:36;23.50;55.10
75615;DHT22;64199;48.578;-4.520;2023-04-03T09:52:43;23.40;54.30
75615;DHT22;64199;48.578;-4.520;2023-04-03T09:55:19;23.30;54.30
75615;DHT22;64199;48.578;-4.520;2023-04-03T09:57:47;23.30;54.40
75615;DHT22;64199;48.578;-4.520;2023-04-03T10:00:36;23.30;54.40
75615;DHT22;64199;48.578;-4.520;2023-04-03T10:03:03;23.30;54.70
75615;DHT22;64199;48.578;-4.520;2023-04-03T10:05:38;23.20;54.50
75615;DHT22;64199;48.578;-4.520;2023-04-03T10:08:23;23.30;54.40
75615;DHT22;64199;48.578;-4.520;2023-04-03T10:11:11;23.20;54.30
75615;DHT22;64199;48.578;-4.520;2023-04-03T10:13:59;23.20;54.20
75615;DHT22;64199;48.578;-4.520;2023-04-03T10:17:09;23.20;54.20
75615;DHT22;64199;48.578;-4.520;2023-04-03T10:27:16;23.10;54.30
75615;DHT22;64199;48.578;-4.520;2023-04-03T10:48:37;23.00;54.20
75615;DHT22;64199;48.578;-4.520;2023-04-03T10:51:20;22.90;54.10
75615;DHT22;64199;48.578;-4.520;2023-04-03T10:53:57;22.90;54.20
75615;DHT22;64199;48.578;-4.520;2023-04-03T10:56:35;22.90;54.40
75615;DHT22;64199;48.578;-4.520;2023-04-03T10:59:32;22.90;54.40
75615;DHT22;64199;48.578;-4.520;2023-04-03T11:04:40;22.90;54.50
75615;DHT22;64199;48.578;-4.520;2023-04-03T11:07:34;22.90;54.60
75615;DHT22;64199;48.578;-4.520;2023-04-03T11:10:11;22.80;54.60
75615;DHT22;64199;48.578;-4.520;2023-04-03T11:12:55;22.90;54.70
75615;DHT22;64199;48.578;-4.520;2023-04-03T11:15:22;22.90;54.50
75615;DHT22;64199;48.578;-4.520;2023-04-03T11:17:54;22.80;55.10
75615;DHT22;64199;48.578;-4.520;2023-04-03T11:23:13;22.80;54.40
75615;DHT22;64199;48.578;-4.520;2023-04-03T11:25:43;22.80;54.40
75615;DHT22;64199;48.578;-4.520;2023-04-03T11:28:12;22.80;54.30
75615;DHT22;64199;48.578;-4.520;2023-04-03T11:35:53;22.60;54.20
75615;DHT22;64199;48.578;-4.520;2023-04-03T11:38:43;22.60;54.20
75615;DHT22;64199;48.578;-4.520;2023-04-03T11:41:12;22.60;54.20
75615;DHT22;64199;48.578;-4.520;2023-04-03T11:43:57;22.60;54.20
75615;DHT22;64199;48.578;-4.520;2023-04-03T11:49:56;22.50;54.10
75615;DHT22;64199;48.578;-4.520;2023-04-03T12:14:03;22.30;54.20
75615;DHT22;64199;48.578;-4.520;2023-04-03T12:19:34;22.20;54.20
75615;DHT22;64199;48.578;-4.520;2023-04-03T12:24:30;22.20;54.20
75615;DHT22;64199;48.578;-4.520;2023-04-03T12:29:33;22.20;54.90
75615;DHT22;64199;48.578;-4.520;2023-04-03T12:32:26;22.10;54.20
75615;DHT22;64199;48.578;-4.520;2023-04-03T12:40:14;22.10;54.30
75615;DHT22;64199;48.578;-4.520;2023-04-03T12:42:55;22.00;54.20
75615;DHT22;64199;48.578;-4.520;2023-04-03T12:45:24;22.00;54.30
75615;DHT22;64199;48.578;-4.520;2023-04-03T12:47:55;22.00;54.40
75615;DHT22;64199;48.578;-4.520;2023-04-03T12:50:28;21.90;54.30
75615;DHT22;64199;48.578;-4.520;2023-04-03T12:52:59;22.00;54.40
75615;DHT22;64199;48.578;-4.520;2023-04-03T12:55:27;21.90;54.30
75615;DHT22;64199;48.578;-4.520;2023-04-03T12:57:53;21.90;54.30
75615;DHT22;64199;48.578;-4.520;2023-04-03T13:02:48;21.90;54.30
75615;DHT22;64199;48.578;-4.520;2023-04-03T13:05:17;21.90;54.30
75615;DHT22;64199;48.578;-4.520;2023-04-03T13:07:56;21.90;54.30
75615;DHT22;64199;48.578;-4.520;2023-04-03T13:10:24;21.90;54.30
75615;DHT22;64199;48.578;-4.520;2023-04-03T13:12:56;21.90;54.90
75615;DHT22;64199;48.578;-4.520;2023-04-03T13:15:42;21.90;54.30
75615;DHT22;64199;48.578;-4.520;2023-04-03T13:18:41;21.90;54.30
75615;DHT22;64199;48.578;-4.520;2023-04-03T13:21:17;21.90;54.30
75615;DHT22;64199;48.578;-4.520;2023-04-03T13:23:47;21.90;54.30
75615;DHT22;64199;48.578;-4.520;2023-04-03T13:26:16;21.80;54.20
75615;DHT22;64199;48.578;-4.520;2023-04-03T13:28:44;21.80;54.30
75615;DHT22;64199;48.578;-4.520;2023-04-03T13:36:38;21.80;54.20
75615;DHT22;64199;48.578;-4.520;2023-04-03T13:42:02;21.80;54.30
75615;DHT22;64199;48.578;-4.520;2023-04-03T13:44:40;21.80;54.30
75615;DHT22;64199;48.578;-4.520;2023-04-03T13:50:12;21.80;54.30
75615;DHT22;64199;48.578;-4.520;2023-04-03T13:52:47;21.80;54.30
75615;DHT22;64199;48.578;-4.520;2023-04-03T13:55:34;21.80;54.30
75615;DHT22;64199;48.578;-4.520;2023-04-03T13:58:20;21.80;54.30
75615;DHT22;64199;48.578;-4.520;2023-04-03T14:00:55;21.80;54.30
75615;DHT22;64199;48.578;-4.520;2023-04-03T14:03:33;21.80;54.30
75615;DHT22;64199;48.578;-4.520;2023-04-03T14:06:00;21.70;54.30
75615;DHT22;64199;48.578;-4.520;2023-04-03T14:08:27;21.70;54.30
75615;DHT22;64199;48.578;-4.520;2023-04-03T14:10:53;21.70;54.20
75615;DHT22;64199;48.578;-4.520;2023-04-03T14:13:20;21.70;54.20
75615;DHT22;64199;48.578;-4.520;2023-04-03T14:15:47;21.70;54.30
75615;DHT22;64199;48.578;-4.520;2023-04-03T14:18:17;21.70;54.30
75615;DHT22;64199;48.578;-4.520;2023-04-03T14:20:43;21.70;54.20
75615;DHT22;64199;48.578;-4.520;2023-04-03T14:23:09;21.70;54.20
75615;DHT22;64199;48.578;-4.520;2023-04-03T14:25:36;21.70;54.20
75615;DHT22;64199;48.578;-4.520;2023-04-03T14:30:45;21.70;54.20
75615;DHT22;64199;48.578;-4.520;2023-04-03T14:33:17;21.70;54.20
75615;DHT22;64199;48.578;-4.520;2023-04-03T14:35:45;21.70;54.80
75615;DHT22;64199;48.578;-4.520;2023-04-03T14:38:27;21.70;54.20
75615;DHT22;64199;48.578;-4.520;2023-04-03T14:40:55;21.70;54.20
75615;DHT22;64199;48.578;-4.520;2023-04-03T14:43:21;21.70;54.20
75615;DHT22;64199;48.578;-4.520;2023-04-03T14:45:48;21.70;54.20
75615;DHT22;64199;48.578;-4.520;2023-04-03T14:48:24;21.70;54.20
75615;DHT22;64199;48.578;-4.520;2023-04-03T14:50:52;21.70;54.20
75615;DHT22;64199;48.578;-4.520;2023-04-03T14:53:19;21.70;54.20
75615;DHT22;64199;48.578;-4.520;2023-04-03T14:55:48;21.70;54.20
75615;DHT22;64199;48.578;-4.520;2023-04-03T14:58:21;21.70;54.20
75615;DHT22;64199;48.578;-4.520;2023-04-03T15:00:48;21.70;54.20
75615;DHT22;64199;48.578;-4.520;2023-04-03T15:03:19;21.70;54.10
75615;DHT22;64199;48.578;-4.520;2023-04-03T15:05:47;21.70;54.10
75615;DHT22;64199;48.578;-4.520;2023-04-03T15:08:22;21.60;54.10
75615;DHT22;64199;48.578;-4.520;2023-04-03T15:10:50;21.70;54.10
75615;DHT22;64199;48.578;-4.520;2023-04-03T15:13:18;21.60;54.10
75615;DHT22;64199;48.578;-4.520;2023-04-03T15:15:45;21.70;54.10
75615;DHT22;64199;48.578;-4.520;2023-04-03T15:18:21;21.70;54.10
75615;DHT22;64199;48.578;-4.520;2023-04-03T15:20:48;21.60;54.10
75615;DHT22;64199;48.578;-4.520;2023-04-03T15:23:15;21.60;54.10
75615;DHT22;64199;48.578;-4.520;2023-04-03T15:25:43;21.60;54.10
75615;DHT22;64199;48.578;-4.520;2023-04-03T15:28:19;21.60;54.10
75615;DHT22;64199;48.578;-4.520;2023-04-03T15:30:46;21.60;54.10
75615;DHT22;64199;48.578;-4.520;2023-04-03T15:33:12;21.60;54.10
75615;DHT22;64199;48.578;-4.520;2023-04-03T15:35:38;21.60;54.10
75615;DHT22;64199;48.578;-4.520;2023-04-03T15:38:04;21.60;54.10
75615;DHT22;64199;48.578;-4.520;2023-04-03T15:40:30;21.60;54.10
75615;DHT22;64199;48.578;-4.520;2023-04-03T15:42:56;21.60;54.10
75615;DHT22;64199;48.578;-4.520;2023-04-03T15:45:22;21.60;54.10
75615;DHT22;64199;48.578;-4.520;2023-04-03T15:47:48;21.60;54.20
75615;DHT22;64199;48.578;-4.520;2023-04-03T15:50:14;21.50;54.10
75615;DHT22;64199;48.578;-4.520;2023-04-03T15:52:40;21.50;54.10
75615;DHT22;64199;48.578;-4.520;2023-04-03T15:55:06;21.50;54.10
75615;DHT22;64199;48.578;-4.520;2023-04-03T15:57:32;21.50;54.10
75615;DHT22;64199;48.578;-4.520;2023-04-03T15:59:57;21.50;54.20
75615;DHT22;64199;48.578;-4.520;2023-04-03T16:02:24;21.50;54.20
75615;DHT22;64199;48.578;-4.520;2023-04-03T16:04:54;21.50;54.20
75615;DHT22;64199;48.578;-4.520;2023-04-03T16:07:20;21.40;54.10
75615;DHT22;64199;48.578;-4.520;2023-04-03T16:09:46;21.50;54.10
75615;DHT22;64199;48.578;-4.520;2023-04-03T16:12:12;21.50;54.20
75615;DHT22;64199;48.578;-4.520;2023-04-03T16:14:38;21.40;54.10
75615;DHT22;64199;48.578;-4.520;2023-04-03T16:17:03;21.40;54.10
75615;DHT22;64199;48.578;-4.520;2023-04-03T16:19:30;21.40;54.10
75615;DHT22;64199;48.578;-4.520;2023-04-03T16:21:56;21.40;54.20
75615;DHT22;64199;48.578;-4.520;2023-04-03T16:24:22;21.40;54.10
75615;DHT22;64199;48.578;-4.520;2023-04-03T16:26:48;21.40;54.10
75615;DHT22;64199;48.578;-4.520;2023-04-03T16:29:14;21.40;54.10
75615;DHT22;64199;48.578;-4.520;2023-04-03T16:31:40;21.40;54.10
75615;DHT22;64199;48.578;-4.520;2023-04-03T16:34:06;21.40;54.10
75615;DHT22;64199;48.578;-4.520;2023-04-03T16:36:32;21.30;54.10
75615;DHT22;64199;48.578;-4.520;2023-04-03T16:38:58;21.30;54.20
75615;DHT22;64199;48.578;-4.520;2023-04-03T16:41:24;21.30;54.10
75615;DHT22;64199;48.578;-4.520;2023-04-03T16:43:51;21.30;54.20
75615;DHT22;64199;48.578;-4.520;2023-04-03T16:46:17;21.30;54.20
75615;DHT22;64199;48.578;-4.520;2023-04-03T16:48:42;21.30;54.20
75615;DHT22;64199;48.578;-4.520;2023-04-03T16:51:09;21.20;54.10
75615;DHT22;64199;48.578;-4.520;2023-04-03T16:53:35;21.20;54.10
75615;DHT22;64199;48.578;-4.520;2023-04-03T16:56:01;21.20;54.10
75615;DHT22;64199;48.578;-4.520;2023-04-03T16:58:27;21.20;54.20
75615;DHT22;64199;48.578;-4.520;2023-04-03T17:00:55;21.20;54.20
75615;DHT22;64199;48.578;-4.520;2023-04-03T17:03:22;21.20;54.20
75615;DHT22;64199;48.578;-4.520;2023-04-03T17:05:51;21.20;54.10
75615;DHT22;64199;48.578;-4.520;2023-04-03T17:08:17;21.20;54.10
75615;DHT22;64199;48.578;-4.520;2023-04-03T17:10:43;21.10;54.10
75615;DHT22;64199;48.578;-4.520;2023-04-03T17:13:10;21.10;54.30
75615;DHT22;64199;48.578;-4.520;2023-04-03T17:15:36;21.10;54.10
75615;DHT22;64199;48.578;-4.520;2023-04-03T17:18:03;21.10;54.10
75615;DHT22;64199;48.578;-4.520;2023-04-03T17:20:30;21.10;54.10
75615;DHT22;64199;48.578;-4.520;2023-04-03T17:22:58;21.10;54.20
75615;DHT22;64199;48.578;-4.520;2023-04-03T17:25:24;21.00;54.10
75615;DHT22;64199;48.578;-4.520;2023-04-03T17:27:51;21.10;54.20